< Typhoon 200517 2005 Season Typhoon 200519 >
Typhoon 200518 (DAMREY)
General InformationTrack Information on Google MapsDetailed Wind InformationAccess Analytics MapList of All Images || NewsDisaster Info.WeblogTrackbackTyphoon FrontResourceGoogle EarthGE AnimationAtom FeedGeoJSON
Detalied Best Track (Time Zone = UTC)
Year Month Day Hour Lat. Long. Pressure (hPa) Wind (kt) Class Image Chart
2005 9 19 06 13.2 127.0 1006 0 2 Image Chart
2005 9 19 12 13.8 126.1 1006 0 2 Image Chart
2005 9 19 18 14.3 125.2 1004 0 2 Image Chart
2005 9 20 00 14.9 124.6 1000 0 2 Image Chart
2005 9 20 06 15.8 124.1 1000 0 2 Image Chart
2005 9 20 12 16.5 123.7 1000 0 2 Image Chart
2005 9 20 18 17.2 123.3 998 0 2 Image Chart
2005 9 21 00 18.0 122.8 996 35 3 Image Chart
2005 9 21 06 18.7 122.2 992 40 3 Image Chart
2005 9 21 12 18.9 121.5 990 45 3 Image Chart
2005 9 21 18 19.3 121.2 990 45 3 Image Chart
2005 9 22 00 19.8 121.0 990 45 3 Image Chart
2005 9 22 06 20.2 120.4 990 45 3 Image Chart
2005 9 22 12 20.0 119.6 990 45 3 Image Chart
2005 9 22 18 19.8 118.8 990 45 3 Image Chart
2005 9 23 00 20.0 118.0 990 45 3 Image Chart
2005 9 23 06 20.5 116.8 990 45 3 Image Chart
2005 9 23 12 20.5 116.7 990 45 3 Image Chart
2005 9 23 18 20.3 116.1 985 50 4 Image Chart
2005 9 24 00 20.0 115.4 980 55 4 Image Chart
2005 9 24 06 19.7 114.8 975 60 4 Image Chart
2005 9 24 12 19.3 114.0 970 65 5 Image Chart
2005 9 24 18 18.9 113.4 970 65 5 Image Chart
2005 9 25 00 18.8 113.1 960 75 5 Image Chart
2005 9 25 06 19.1 112.4 955 80 5 Image Chart
2005 9 25 12 19.2 111.8 955 80 5 Image Chart
2005 9 25 18 19.1 110.7 955 80 5 Image Chart
2005 9 26 00 18.5 109.9 965 70 5 Image Chart
2005 9 26 06 18.8 108.9 970 65 5 Image Chart
2005 9 26 12 19.4 108.1 975 60 4 Image Chart
2005 9 26 18 19.5 107.5 975 60 4 Image Chart
2005 9 27 00 19.6 106.3 980 60 4 Image Chart
2005 9 27 06 19.7 105.0 990 50 4 Image Chart
2005 9 27 12 19.3 103.8 996 35 3 Image Chart
2005 9 27 18 19.5 102.6 1004 0 2 Image Chart
2005 9 28 00 20.4 101.3 1006 0 2 Image Chart
2005 9 28 06 21.0 99.7 1006 0 2 Image Chart
Japan Meteorological Agency Best Track Data | Correction Date : 2005-12-19
< Typhoon 200517 2005 Season Typhoon 200519 >

Help